createdAt,value
2019-02-08T00:00:50.029Z,63.69
2019-02-08T00:03:37.985Z,63.78
2019-02-08T00:06:26.065Z,64.05
2019-02-08T00:09:13.943Z,63.74
2019-02-08T00:12:01.772Z,64.18
2019-02-08T00:14:50.170Z,63.83
2019-02-08T00:17:38.483Z,63.79
2019-02-08T00:20:26.358Z,63.75
2019-02-08T00:23:25.973Z,64.15
2019-02-08T00:26:03.913Z,64.14
2019-02-08T00:28:52.009Z,64.06
2019-02-08T00:31:40.118Z,64.52
2019-02-08T00:34:28.361Z,65.01
2019-02-08T00:37:16.580Z,65.07
2019-02-08T00:40:07.385Z,65.14
2019-02-08T00:42:55.293Z,64.81
2019-02-08T00:45:43.584Z,64.15
2019-02-08T00:48:31.828Z,64.33
2019-02-08T00:51:20.272Z,63.62
2019-02-08T00:54:08.162Z,63.58
2019-02-08T00:56:57.257Z,64.16
2019-02-08T00:59:44.841Z,64.18
2019-02-08T01:02:32.717Z,63.93
2019-02-08T01:05:20.999Z,64.15
2019-02-08T01:08:08.756Z,64.09
2019-02-08T01:10:56.286Z,64.78
2019-02-08T01:13:44.248Z,64.67
2019-02-08T01:16:32.590Z,65.33
2019-02-08T01:19:20.099Z,65.50
2019-02-08T01:22:07.949Z,66.03
2019-02-08T01:24:55.499Z,66.32
2019-02-08T01:27:43.918Z,66.29
2019-02-08T01:30:31.824Z,66.22
2019-02-08T01:33:19.640Z,66.02
2019-02-08T01:36:07.382Z,64.86
2019-02-08T01:38:55.525Z,65.00
2019-02-08T01:41:43.376Z,65.06
2019-02-08T01:44:31.185Z,64.73
2019-02-08T01:47:19.155Z,64.90
2019-02-08T01:50:09.548Z,64.71
2019-02-08T01:52:57.693Z,64.43
2019-02-08T01:55:45.618Z,63.36
2019-02-08T01:58:33.280Z,63.82
2019-02-08T02:01:21.226Z,63.50
2019-02-08T02:04:09.202Z,63.89
2019-02-08T02:06:57.128Z,63.82
2019-02-08T02:09:45.350Z,63.93
2019-02-08T02:12:33.467Z,64.16
2019-02-08T02:15:21.455Z,63.89
2019-02-08T02:18:10.870Z,63.70
2019-02-08T02:20:58.437Z,63.41
2019-02-08T02:23:46.569Z,63.28
2019-02-08T02:26:34.689Z,63.12
2019-02-08T02:29:22.782Z,63.38
2019-02-08T02:32:10.519Z,62.64
2019-02-08T02:34:58.712Z,62.26
2019-02-08T02:37:46.834Z,62.67
2019-02-08T02:40:34.728Z,62.49
2019-02-08T02:43:23.109Z,62.13
2019-02-08T02:46:10.656Z,62.20
2019-02-08T02:48:59.113Z,62.40
2019-02-08T02:51:47.171Z,62.55
2019-02-08T02:54:34.996Z,62.15
2019-02-08T02:57:22.817Z,61.64
2019-02-08T03:00:17.050Z,62.07
2019-02-08T03:03:05.107Z,61.82
2019-02-08T03:05:52.785Z,61.48
2019-02-08T03:08:40.708Z,61.06
2019-02-08T03:11:28.545Z,60.75
2019-02-08T03:14:16.657Z,61.61
2019-02-08T03:17:04.771Z,61.99
2019-02-08T03:19:52.787Z,62.09
2019-02-08T03:22:40.841Z,61.80
2019-02-08T03:25:29.105Z,60.85
2019-02-08T03:28:16.721Z,60.88
2019-02-08T03:31:04.570Z,60.63
2019-02-08T03:33:52.792Z,59.50
2019-02-08T03:36:41.012Z,60.39
2019-02-08T03:39:29.016Z,60.94
2019-02-08T03:42:17.241Z,60.66
2019-02-08T03:45:05.951Z,61.93
2019-02-08T03:47:54.100Z,62.21
2019-02-08T03:50:42.662Z,62.64
2019-02-08T03:53:30.427Z,63.76
2019-02-08T03:56:18.415Z,64.35
2019-02-08T03:59:06.664Z,65.11
2019-02-08T04:01:54.700Z,65.29
2019-02-08T04:04:42.755Z,65.44
2019-02-08T04:07:30.942Z,65.34
2019-02-08T04:10:19.297Z,64.75
2019-02-08T04:13:07.395Z,64.22
2019-02-08T04:15:55.268Z,64.35
2019-02-08T04:18:43.221Z,63.19
2019-02-08T04:21:31.151Z,63.26
2019-02-08T04:24:18.742Z,62.10
2019-02-08T04:27:07.039Z,62.76
2019-02-08T04:29:55.242Z,62.16
2019-02-08T04:32:43.244Z,61.73
2019-02-08T04:35:31.116Z,61.89
2019-02-08T04:38:18.947Z,62.28
2019-02-08T04:41:06.475Z,62.38
2019-02-08T04:43:54.763Z,61.72
2019-02-08T04:46:42.900Z,62.48
2019-02-08T04:49:31.196Z,62.37
2019-02-08T04:52:19.240Z,62.03
2019-02-08T04:55:07.684Z,61.71
2019-02-08T04:57:55.302Z,61.69
2019-02-08T05:00:43.524Z,62.00
2019-02-08T05:03:31.642Z,62.23
2019-02-08T05:06:19.043Z,62.41
2019-02-08T05:09:08.403Z,62.80
2019-02-08T05:11:56.167Z,62.83
2019-02-08T05:14:44.360Z,62.34
2019-02-08T05:17:32.496Z,62.29
2019-02-08T05:20:21.914Z,62.72
2019-02-08T05:23:09.881Z,63.39
2019-02-08T05:25:57.441Z,63.58
2019-02-08T05:28:45.204Z,63.30
2019-02-08T05:31:33.547Z,63.85
2019-02-08T05:34:21.436Z,64.86
2019-02-08T05:37:09.027Z,65.09
2019-02-08T05:39:56.985Z,65.40
2019-02-08T05:42:45.274Z,65.65
2019-02-08T05:45:33.212Z,66.06
2019-02-08T05:48:20.984Z,66.28
2019-02-08T05:51:08.944Z,66.47
2019-02-08T05:53:56.982Z,66.38
2019-02-08T05:56:45.105Z,66.08
2019-02-08T05:59:32.962Z,66.27
2019-02-08T06:02:20.777Z,66.25
2019-02-08T06:05:10.154Z,66.30
2019-02-08T06:07:58.054Z,66.57
2019-02-08T06:10:45.784Z,66.57
2019-02-08T06:13:33.622Z,66.87
2019-02-08T06:16:21.511Z,66.59
2019-02-08T06:19:09.642Z,66.49
2019-02-08T06:21:57.727Z,65.86
2019-02-08T06:24:45.564Z,66.57
2019-02-08T06:27:33.879Z,66.48
2019-02-08T06:30:22.532Z,66.51
2019-02-08T06:33:10.583Z,66.48
2019-02-08T06:35:58.170Z,66.54
2019-02-08T06:38:46.286Z,66.59
2019-02-08T06:41:34.169Z,66.50
2019-02-08T06:44:22.397Z,66.02
2019-02-08T06:47:10.317Z,65.76
2019-02-08T06:49:58.168Z,65.80
2019-02-08T06:52:46.177Z,65.42
2019-02-08T06:55:34.044Z,65.22
2019-02-08T06:58:53.042Z,65.25
2019-02-08T07:01:59.688Z,65.20
2019-02-08T07:05:06.135Z,65.17
2019-02-08T07:08:10.860Z,64.76
2019-02-08T07:11:19.681Z,65.02
2019-02-08T07:14:17.683Z,64.84
2019-02-08T07:17:18.118Z,64.79
2019-02-08T07:20:28.926Z,64.54
2019-02-08T07:23:39.213Z,64.49
2019-02-08T07:26:44.887Z,64.31
2019-02-08T07:30:03.898Z,64.33
2019-02-08T07:33:16.665Z,64.30
2019-02-08T07:36:22.354Z,64.46
2019-02-08T07:39:35.912Z,63.72
2019-02-08T07:42:41.883Z,63.57
2019-02-08T07:45:49.515Z,63.10
2019-02-08T07:48:56.311Z,62.62
2019-02-08T07:52:09.455Z,61.30
2019-02-08T07:55:25.932Z,58.67
2019-02-08T07:58:35.026Z,57.94
2019-02-08T08:01:40.606Z,58.62
2019-02-08T08:04:50.281Z,59.03
2019-02-08T08:07:54.402Z,59.42
2019-02-08T08:11:13.424Z,59.40
2019-02-08T08:14:18.842Z,58.93
2019-02-08T08:17:25.098Z,56.97
2019-02-08T08:20:35.359Z,55.39
2019-02-08T08:23:48.444Z,54.44
2019-02-08T08:26:48.272Z,54.27
2019-02-08T08:30:05.951Z,52.98
2019-02-08T08:33:14.410Z,52.54
2019-02-08T08:36:21.534Z,52.84
2019-02-08T08:39:47.092Z,53.77
2019-02-08T08:43:08.392Z,53.10
2019-02-08T08:46:31.124Z,52.53
2019-02-08T08:49:51.532Z,52.96
2019-02-08T08:53:11.794Z,53.50
2019-02-08T08:56:15.527Z,53.10
2019-02-08T08:59:48.968Z,52.25
2019-02-08T09:03:28.931Z,52.67
2019-02-08T09:06:47.413Z,52.63
2019-02-08T09:10:43.717Z,52.97
2019-02-08T09:14:27.987Z,53.51
2019-02-08T09:18:12.598Z,53.62
2019-02-08T09:21:25.724Z,54.70
2019-02-08T09:24:37.983Z,54.68
2019-02-08T09:28:21.919Z,54.89
2019-02-08T09:31:43.733Z,54.49
2019-02-08T09:35:08.749Z,54.23
2019-02-08T09:38:38.365Z,54.66
2019-02-08T09:42:05.094Z,53.50
2019-02-08T09:45:42.315Z,53.79
2019-02-08T09:49:10.318Z,53.01
2019-02-08T09:52:19.420Z,53.46
2019-02-08T09:55:35.289Z,51.11
2019-02-08T09:59:16.750Z,52.17
2019-02-08T10:02:24.962Z,51.77
2019-02-08T10:05:35.847Z,51.83
2019-02-08T10:09:05.370Z,50.78
2019-02-08T10:12:45.375Z,49.64
2019-02-08T10:16:16.526Z,49.57
2019-02-08T10:19:47.964Z,50.43
2019-02-08T10:22:57.161Z,50.42
2019-02-08T10:26:23.522Z,50.48
2019-02-08T10:29:51.168Z,48.72
2019-02-08T10:33:12.077Z,50.80
2019-02-08T10:36:38.475Z,50.50
2019-02-08T10:40:31.596Z,49.27
2019-02-08T10:43:59.315Z,49.47
2019-02-08T10:47:19.983Z,49.92
2019-02-08T10:50:33.355Z,47.33
2019-02-08T10:53:53.452Z,47.60
2019-02-08T10:57:17.670Z,47.97
2019-02-08T11:00:36.728Z,46.24
2019-02-08T11:04:00.241Z,47.45
2019-02-08T11:07:27.863Z,48.10
2019-02-08T11:11:01.888Z,49.62
2019-02-08T11:14:29.216Z,48.43
2019-02-08T11:18:00.756Z,47.53
2019-02-08T11:20:48.579Z,47.26
2019-02-08T11:23:36.279Z,47.56
2019-02-08T11:26:24.735Z,47.24
2019-02-08T11:29:12.699Z,46.93
2019-02-08T11:32:00.719Z,46.50
2019-02-08T11:34:48.603Z,46.09
2019-02-08T11:37:36.756Z,45.43
2019-02-08T11:40:26.727Z,44.54
2019-02-08T11:43:14.558Z,44.97
2019-02-08T11:46:02.784Z,44.10
2019-02-08T11:48:50.741Z,43.22
2019-02-08T11:51:38.834Z,43.90
2019-02-08T11:54:26.571Z,43.45
2019-02-08T11:57:14.705Z,43.17
2019-02-08T12:00:03.884Z,42.62
2019-02-08T12:02:51.502Z,42.63
2019-02-08T12:05:39.514Z,43.92
2019-02-08T12:08:27.688Z,44.46
2019-02-08T12:11:15.308Z,43.85
2019-02-08T12:14:03.424Z,43.64
2019-02-08T12:16:51.491Z,43.21
2019-02-08T12:19:39.330Z,42.74
2019-02-08T12:22:27.575Z,42.96
2019-02-08T12:25:15.843Z,42.00
2019-02-08T12:28:03.738Z,42.14
2019-02-08T12:30:51.863Z,43.51
2019-02-08T12:33:39.457Z,42.35
2019-02-08T12:36:27.763Z,42.13
2019-02-08T12:39:15.906Z,41.65
2019-02-08T12:42:04.011Z,42.00
2019-02-08T12:44:52.013Z,42.23
2019-02-08T12:47:40.082Z,43.02
2019-02-08T12:50:27.995Z,42.73
2019-02-08T12:53:16.087Z,42.32
2019-02-08T12:56:04.304Z,42.48
2019-02-08T12:58:52.216Z,42.50
2019-02-08T13:01:40.080Z,42.47
2019-02-08T13:04:28.503Z,41.05
2019-02-08T13:07:16.599Z,41.77
2019-02-08T13:10:06.562Z,41.84
2019-02-08T13:12:54.910Z,41.93
2019-02-08T13:15:43.114Z,42.22
2019-02-08T13:18:31.862Z,41.29
2019-02-08T13:21:20.022Z,41.61
2019-02-08T13:24:08.023Z,41.38
2019-02-08T13:26:55.635Z,40.87
2019-02-08T13:29:43.684Z,40.69
2019-02-08T13:32:31.560Z,40.52
2019-02-08T13:35:19.643Z,40.97
2019-02-08T13:38:07.501Z,41.28
2019-02-08T13:40:55.689Z,41.20
2019-02-08T13:43:43.531Z,41.18
2019-02-08T13:46:31.791Z,40.92
2019-02-08T13:49:20.100Z,40.86
2019-02-08T13:52:08.222Z,41.11
2019-02-08T13:54:56.210Z,41.10
2019-02-08T13:57:44.220Z,41.99
2019-02-08T14:00:34.643Z,40.57
2019-02-08T14:03:22.761Z,40.72
2019-02-08T14:06:10.825Z,41.21
2019-02-08T14:08:58.726Z,41.89
2019-02-08T14:11:46.569Z,40.93
2019-02-08T14:14:34.900Z,41.59
2019-02-08T14:17:23.125Z,41.03
2019-02-08T14:20:14.006Z,41.59
2019-02-08T14:23:02.233Z,41.63
2019-02-08T14:25:50.474Z,41.08
2019-02-08T14:28:38.382Z,41.40
2019-02-08T14:31:26.964Z,41.65
2019-02-08T14:34:15.248Z,41.26
2019-02-08T14:37:03.648Z,41.69
2019-02-08T14:39:51.913Z,41.43
2019-02-08T14:42:39.994Z,41.05
2019-02-08T14:45:27.895Z,41.88
2019-02-08T14:48:15.953Z,42.49
2019-02-08T14:51:04.093Z,42.06
2019-02-08T14:53:51.627Z,42.04
2019-02-08T14:56:39.530Z,42.01
2019-02-08T14:59:27.796Z,42.63
2019-02-08T15:02:16.160Z,42.56
2019-02-08T15:05:03.803Z,42.74
2019-02-08T15:07:51.926Z,42.56
2019-02-08T15:10:42.869Z,42.56
2019-02-08T15:13:31.036Z,42.76
2019-02-08T15:16:19.513Z,42.66
2019-02-08T15:19:07.483Z,43.38
2019-02-08T15:21:55.367Z,42.80
2019-02-08T15:24:43.589Z,42.96
2019-02-08T15:27:31.964Z,42.25
2019-02-08T15:30:24.531Z,42.34
2019-02-08T15:33:12.416Z,42.02
2019-02-08T15:36:00.694Z,41.88
2019-02-08T15:38:48.752Z,42.06
2019-02-08T15:41:38.362Z,40.54
2019-02-08T15:44:26.932Z,40.61
2019-02-08T15:47:15.046Z,40.63
2019-02-08T15:50:02.621Z,40.38
2019-02-08T15:52:50.457Z,40.83
2019-02-08T15:55:39.441Z,41.23
2019-02-08T15:58:27.330Z,41.46
2019-02-08T16:01:15.310Z,42.16
2019-02-08T16:04:03.146Z,41.52
2019-02-08T16:06:51.479Z,41.71
2019-02-08T16:09:39.343Z,42.94
2019-02-08T16:12:27.423Z,43.49
2019-02-08T16:15:18.776Z,43.56
2019-02-08T16:18:08.059Z,43.98
2019-02-08T16:20:55.994Z,44.78
2019-02-08T16:23:43.930Z,45.15
2019-02-08T16:26:32.224Z,45.53
2019-02-08T16:29:20.387Z,45.83
2019-02-08T16:32:08.219Z,46.36
2019-02-08T16:34:57.057Z,46.38
2019-02-08T16:37:45.204Z,47.06
2019-02-08T16:40:33.344Z,47.60
2019-02-08T16:43:21.366Z,47.44
2019-02-08T16:46:09.557Z,47.73
2019-02-08T16:48:57.414Z,47.96
2019-02-08T16:51:44.938Z,48.46
2019-02-08T16:54:32.795Z,48.82
2019-02-08T16:57:21.172Z,49.08
2019-02-08T17:00:13.371Z,49.09
2019-02-08T17:03:02.653Z,49.42
2019-02-08T17:05:50.580Z,49.62
2019-02-08T17:08:38.459Z,49.84
2019-02-08T17:11:26.668Z,50.20
2019-02-08T17:14:14.514Z,50.75
2019-02-08T17:17:02.590Z,51.20
2019-02-08T17:19:50.972Z,51.01
2019-02-08T17:22:39.240Z,51.11
2019-02-08T17:25:27.115Z,51.37
2019-02-08T17:28:15.321Z,50.26
2019-02-08T17:31:03.328Z,50.48
2019-02-08T17:33:51.199Z,50.52
2019-02-08T17:36:39.153Z,50.77
2019-02-08T17:39:27.346Z,50.62
2019-02-08T17:42:14.916Z,51.03
2019-02-08T17:45:03.049Z,51.00
2019-02-08T17:47:50.869Z,51.39
2019-02-08T17:50:39.599Z,51.42
2019-02-08T17:53:27.298Z,52.64
2019-02-08T17:56:15.400Z,52.39
2019-02-08T17:59:03.071Z,52.31
2019-02-08T18:01:50.954Z,52.80
2019-02-08T18:04:39.155Z,53.12
2019-02-08T18:07:27.469Z,53.13
2019-02-08T18:10:18.295Z,53.08
2019-02-08T18:13:06.383Z,53.87
2019-02-08T18:15:54.264Z,54.05
2019-02-08T18:18:42.175Z,54.00
2019-02-08T18:21:30.129Z,53.53
2019-02-08T18:24:18.238Z,53.74
2019-02-08T18:27:06.366Z,53.97
2019-02-08T18:29:54.317Z,53.82
2019-02-08T18:32:42.299Z,53.71
2019-02-08T18:35:30.036Z,54.17
2019-02-08T18:38:17.950Z,54.61
2019-02-08T18:41:05.751Z,55.12
2019-02-08T18:43:53.613Z,55.17
2019-02-08T18:46:41.744Z,54.44
2019-02-08T18:49:29.705Z,54.21
2019-02-08T18:52:17.684Z,55.13
2019-02-08T18:55:06.318Z,54.78
2019-02-08T18:57:54.097Z,53.79
2019-02-08T19:00:44.204Z,53.23
2019-02-08T19:03:32.410Z,53.47
2019-02-08T19:06:20.340Z,52.84
2019-02-08T19:09:09.483Z,52.95
2019-02-08T19:11:57.491Z,54.53
2019-02-08T19:14:45.635Z,54.13
2019-02-08T19:17:33.942Z,54.86
2019-02-08T19:20:23.463Z,54.89
2019-02-08T19:23:11.839Z,54.31
2019-02-08T19:26:00.192Z,53.75
2019-02-08T19:28:48.254Z,54.19
2019-02-08T19:31:35.964Z,54.50
2019-02-08T19:34:42.184Z,55.55
2019-02-08T19:37:31.904Z,55.84
2019-02-08T19:40:22.741Z,55.96
2019-02-08T19:43:10.378Z,55.96
2019-02-08T19:46:02.182Z,56.15
2019-02-08T19:48:50.927Z,56.15
2019-02-08T19:51:51.697Z,56.04
2019-02-08T19:54:44.029Z,56.21
2019-02-08T19:57:39.739Z,56.32
2019-02-08T20:00:32.131Z,56.18
2019-02-08T20:03:22.993Z,56.06
2019-02-08T20:06:14.423Z,56.27
2019-02-08T20:09:16.098Z,55.10
2019-02-08T20:12:11.389Z,54.94
2019-02-08T20:15:03.366Z,54.12
2019-02-08T20:17:51.308Z,53.58
2019-02-08T20:20:39.561Z,54.17
2019-02-08T20:23:27.667Z,54.18
2019-02-08T20:26:16.039Z,54.05
2019-02-08T20:29:04.099Z,54.27
2019-02-08T20:31:52.369Z,54.48
2019-02-08T20:34:40.513Z,54.99
2019-02-08T20:37:28.425Z,55.20
2019-02-08T20:40:19.106Z,55.30
2019-02-08T20:43:07.219Z,55.92
2019-02-08T20:45:55.053Z,56.47
2019-02-08T20:48:42.903Z,56.71
2019-02-08T20:51:30.821Z,56.97
2019-02-08T20:54:19.273Z,56.80
2019-02-08T20:57:07.763Z,56.91
2019-02-08T20:59:55.848Z,56.40
2019-02-08T21:02:45.480Z,56.70
2019-02-08T21:05:33.656Z,57.31
2019-02-08T21:08:22.694Z,57.33
2019-02-08T21:11:11.072Z,57.42
2019-02-08T21:13:59.271Z,57.69
2019-02-08T21:16:47.520Z,57.64
2019-02-08T21:19:35.908Z,57.70
2019-02-08T21:22:23.781Z,57.53
2019-02-08T21:25:12.716Z,57.14
2019-02-08T21:28:00.575Z,57.17
2019-02-08T21:30:48.557Z,57.48
2019-02-08T21:33:36.646Z,57.59
2019-02-08T21:36:24.633Z,57.54
2019-02-08T21:39:12.455Z,58.28
2019-02-08T21:42:00.581Z,58.12
2019-02-08T21:44:48.555Z,58.26
2019-02-08T21:47:36.289Z,58.63
2019-02-08T21:50:24.669Z,58.48
2019-02-08T21:53:12.719Z,58.44
2019-02-08T21:56:01.047Z,58.68
2019-02-08T21:58:50.742Z,59.10
2019-02-08T22:01:39.012Z,59.00
2019-02-08T22:04:26.957Z,59.31
2019-02-08T22:07:15.389Z,59.80
2019-02-08T22:10:03.486Z,59.85
2019-02-08T22:12:51.317Z,59.73
2019-02-08T22:15:39.706Z,59.88
2019-02-08T22:18:28.516Z,59.65
2019-02-08T22:21:16.388Z,59.59
2019-02-08T22:24:03.987Z,59.42
2019-02-08T22:26:51.859Z,59.39
2019-02-08T22:29:40.127Z,59.17
2019-02-08T22:32:28.333Z,58.88
2019-02-08T22:35:16.703Z,58.90
2019-02-08T22:38:04.470Z,58.97
2019-02-08T22:40:52.677Z,59.74
2019-02-08T22:43:40.986Z,59.71
2019-02-08T22:46:28.955Z,60.22
2019-02-08T22:49:16.929Z,59.82
2019-02-08T22:52:05.771Z,60.12
2019-02-08T22:54:53.878Z,59.97
2019-02-08T22:57:42.079Z,60.46
2019-02-08T23:01:24.769Z,59.99
2019-02-08T23:04:13.197Z,60.73
2019-02-08T23:07:01.101Z,60.00
2019-02-08T23:09:49.089Z,60.08
2019-02-08T23:12:37.285Z,59.74
2019-02-08T23:15:25.275Z,58.99
2019-02-08T23:18:13.227Z,58.49
2019-02-08T23:21:00.902Z,57.97
2019-02-08T23:23:48.694Z,56.66
2019-02-08T23:26:36.589Z,56.93
2019-02-08T23:29:29.916Z,56.90
2019-02-08T23:32:14.119Z,56.16
2019-02-08T23:35:03.498Z,56.49
2019-02-08T23:37:51.803Z,54.42
2019-02-08T23:40:40.182Z,54.29
2019-02-08T23:43:28.143Z,52.58
2019-02-08T23:46:15.765Z,52.78
2019-02-08T23:49:04.217Z,53.17
2019-02-08T23:51:51.772Z,53.22
2019-02-08T23:54:39.532Z,52.74
2019-02-08T23:57:27.697Z,52.43
